sensor_id;sensor_type;location;lat;lon;timestamp;temperature;humidity
40932;DHT22;36257;46.052;12.540;2022-08-21T00:02:25;21.40;86.40
40932;DHT22;36257;46.052;12.540;2022-08-21T00:04:52;21.40;86.20
40932;DHT22;36257;46.052;12.540;2022-08-21T00:07:19;21.40;86.30
40932;DHT22;36257;46.052;12.540;2022-08-21T00:09:45;21.40;86.10
40932;DHT22;36257;46.052;12.540;2022-08-21T00:12:11;21.50;86.00
40932;DHT22;36257;46.052;12.540;2022-08-21T00:14:37;21.50;86.00
40932;DHT22;36257;46.052;12.540;2022-08-21T00:17:04;21.40;85.90
40932;DHT22;36257;46.052;12.540;2022-08-21T00:19:31;21.40;85.60
40932;DHT22;36257;46.052;12.540;2022-08-21T00:21:57;21.40;85.70
40932;DHT22;36257;46.052;12.540;2022-08-21T00:24:23;21.40;86.10
40932;DHT22;36257;46.052;12.540;2022-08-21T00:26:49;21.40;86.20
40932;DHT22;36257;46.052;12.540;2022-08-21T00:29:16;21.40;86.30
40932;DHT22;36257;46.052;12.540;2022-08-21T00:31:42;21.40;85.90
40932;DHT22;36257;46.052;12.540;2022-08-21T00:34:09;21.30;85.80
40932;DHT22;36257;46.052;12.540;2022-08-21T00:36:36;21.30;85.60
40932;DHT22;36257;46.052;12.540;2022-08-21T00:39:03;21.30;85.70
40932;DHT22;36257;46.052;12.540;2022-08-21T00:41:28;21.30;85.90
40932;DHT22;36257;46.052;12.540;2022-08-21T00:43:55;21.30;86.20
40932;DHT22;36257;46.052;12.540;2022-08-21T00:46:20;21.30;86.00
40932;DHT22;36257;46.052;12.540;2022-08-21T00:48:46;21.20;85.70
40932;DHT22;36257;46.052;12.540;2022-08-21T00:51:18;21.20;85.90
40932;DHT22;36257;46.052;12.540;2022-08-21T00:53:51;21.10;86.40
40932;DHT22;36257;46.052;12.540;2022-08-21T00:56:19;21.10;86.90
40932;DHT22;36257;46.052;12.540;2022-08-21T00:58:46;21.10;87.20
40932;DHT22;36257;46.052;12.540;2022-08-21T01:01:13;21.00;87.30
40932;DHT22;36257;46.052;12.540;2022-08-21T01:03:38;20.90;86.30
40932;DHT22;36257;46.052;12.540;2022-08-21T01:06:04;20.90;86.00
40932;DHT22;36257;46.052;12.540;2022-08-21T01:08:31;20.90;85.90
40932;DHT22;36257;46.052;12.540;2022-08-21T01:10:58;20.90;86.50
40932;DHT22;36257;46.052;12.540;2022-08-21T01:13:25;20.80;86.70
40932;DHT22;36257;46.052;12.540;2022-08-21T01:15:53;20.80;85.50
40932;DHT22;36257;46.052;12.540;2022-08-21T01:18:20;20.90;85.10
40932;DHT22;36257;46.052;12.540;2022-08-21T01:23:36;20.90;84.00
40932;DHT22;36257;46.052;12.540;2022-08-21T01:26:02;20.90;83.40
40932;DHT22;36257;46.052;12.540;2022-08-21T01:28:31;21.00;83.40
40932;DHT22;36257;46.052;12.540;2022-08-21T01:30:59;21.00;84.30
40932;DHT22;36257;46.052;12.540;2022-08-21T01:33:27;21.00;84.40
40932;DHT22;36257;46.052;12.540;2022-08-21T01:35:52;21.00;84.30
40932;DHT22;36257;46.052;12.540;2022-08-21T01:38:18;21.00;84.30
40932;DHT22;36257;46.052;12.540;2022-08-21T01:40:44;20.90;83.90
40932;DHT22;36257;46.052;12.540;2022-08-21T01:43:10;20.80;84.20
40932;DHT22;36257;46.052;12.540;2022-08-21T01:45:35;20.80;84.30
40932;DHT22;36257;46.052;12.540;2022-08-21T01:48:02;20.80;84.80
40932;DHT22;36257;46.052;12.540;2022-08-21T01:50:28;20.70;84.90
40932;DHT22;36257;46.052;12.540;2022-08-21T01:52:54;20.70;84.90
40932;DHT22;36257;46.052;12.540;2022-08-21T01:55:20;20.70;84.00
40932;DHT22;36257;46.052;12.540;2022-08-21T01:57:46;20.60;83.30
40932;DHT22;36257;46.052;12.540;2022-08-21T02:00:14;20.70;82.20
40932;DHT22;36257;46.052;12.540;2022-08-21T02:02:40;20.70;82.10
40932;DHT22;36257;46.052;12.540;2022-08-21T02:05:08;20.70;82.80
40932;DHT22;36257;46.052;12.540;2022-08-21T02:07:50;20.80;83.10
40932;DHT22;36257;46.052;12.540;2022-08-21T02:10:21;20.80;83.70
40932;DHT22;36257;46.052;12.540;2022-08-21T02:12:46;20.70;83.80
40932;DHT22;36257;46.052;12.540;2022-08-21T02:15:13;20.70;83.30
40932;DHT22;36257;46.052;12.540;2022-08-21T02:17:45;20.70;83.10
40932;DHT22;36257;46.052;12.540;2022-08-21T02:20:19;20.70;82.60
40932;DHT22;36257;46.052;12.540;2022-08-21T02:22:46;20.70;82.40
40932;DHT22;36257;46.052;12.540;2022-08-21T02:25:12;20.70;81.80
40932;DHT22;36257;46.052;12.540;2022-08-21T02:27:42;20.70;82.00
40932;DHT22;36257;46.052;12.540;2022-08-21T02:30:14;20.60;82.20
40932;DHT22;36257;46.052;12.540;2022-08-21T02:32:41;20.70;82.40
40932;DHT22;36257;46.052;12.540;2022-08-21T02:35:08;20.60;82.40
40932;DHT22;36257;46.052;12.540;2022-08-21T02:37:42;20.60;82.00
40932;DHT22;36257;46.052;12.540;2022-08-21T02:40:08;20.60;82.10
40932;DHT22;36257;46.052;12.540;2022-08-21T02:42:36;20.50;82.50
40932;DHT22;36257;46.052;12.540;2022-08-21T02:45:03;20.50;82.10
40932;DHT22;36257;46.052;12.540;2022-08-21T02:47:28;20.50;80.00
40932;DHT22;36257;46.052;12.540;2022-08-21T02:49:54;20.60;80.30
40932;DHT22;36257;46.052;12.540;2022-08-21T02:52:20;20.60;80.40
40932;DHT22;36257;46.052;12.540;2022-08-21T02:54:47;20.60;81.20
40932;DHT22;36257;46.052;12.540;2022-08-21T02:57:12;20.50;81.30
40932;DHT22;36257;46.052;12.540;2022-08-21T02:59:38;20.50;81.80
40932;DHT22;36257;46.052;12.540;2022-08-21T03:02:04;20.60;81.60
40932;DHT22;36257;46.052;12.540;2022-08-21T03:04:30;20.50;82.00
40932;DHT22;36257;46.052;12.540;2022-08-21T03:06:55;20.50;82.50
40932;DHT22;36257;46.052;12.540;2022-08-21T03:09:21;20.40;82.80
40932;DHT22;36257;46.052;12.540;2022-08-21T03:11:47;20.30;83.10
40932;DHT22;36257;46.052;12.540;2022-08-21T03:14:12;20.20;82.60
40932;DHT22;36257;46.052;12.540;2022-08-21T03:16:38;20.10;82.80
40932;DHT22;36257;46.052;12.540;2022-08-21T03:19:03;20.10;81.80
40932;DHT22;36257;46.052;12.540;2022-08-21T03:21:30;20.10;82.50
40932;DHT22;36257;46.052;12.540;2022-08-21T03:23:55;20.10;82.50
40932;DHT22;36257;46.052;12.540;2022-08-21T03:26:21;20.00;82.90
40932;DHT22;36257;46.052;12.540;2022-08-21T03:28:47;20.00;83.20
40932;DHT22;36257;46.052;12.540;2022-08-21T03:31:12;19.90;82.90
40932;DHT22;36257;46.052;12.540;2022-08-21T03:33:38;19.80;83.40
40932;DHT22;36257;46.052;12.540;2022-08-21T03:36:06;19.70;84.00
40932;DHT22;36257;46.052;12.540;2022-08-21T03:38:33;19.70;84.30
40932;DHT22;36257;46.052;12.540;2022-08-21T03:40:59;19.60;84.20
40932;DHT22;36257;46.052;12.540;2022-08-21T03:43:26;19.60;84.30
40932;DHT22;36257;46.052;12.540;2022-08-21T03:45:52;19.60;84.60
40932;DHT22;36257;46.052;12.540;2022-08-21T03:48:18;19.50;84.80
40932;DHT22;36257;46.052;12.540;2022-08-21T03:50:44;19.50;84.40
40932;DHT22;36257;46.052;12.540;2022-08-21T03:53:13;19.40;84.40
40932;DHT22;36257;46.052;12.540;2022-08-21T03:55:39;19.40;84.30
40932;DHT22;36257;46.052;12.540;2022-08-21T03:58:05;19.40;83.30
40932;DHT22;36257;46.052;12.540;2022-08-21T04:00:31;19.50;83.30
40932;DHT22;36257;46.052;12.540;2022-08-21T04:02:57;19.50;83.60
40932;DHT22;36257;46.052;12.540;2022-08-21T04:05:23;19.50;83.50
40932;DHT22;36257;46.052;12.540;2022-08-21T04:08:00;19.50;84.10
40932;DHT22;36257;46.052;12.540;2022-08-21T04:10:28;19.50;84.60
40932;DHT22;36257;46.052;12.540;2022-08-21T04:12:55;19.40;84.80
40932;DHT22;36257;46.052;12.540;2022-08-21T04:15:22;19.40;85.50
40932;DHT22;36257;46.052;12.540;2022-08-21T04:17:48;19.30;85.10
40932;DHT22;36257;46.052;12.540;2022-08-21T04:20:15;19.30;85.00
40932;DHT22;36257;46.052;12.540;2022-08-21T04:22:41;19.20;84.60
40932;DHT22;36257;46.052;12.540;2022-08-21T04:25:07;19.30;84.60
40932;DHT22;36257;46.052;12.540;2022-08-21T04:27:34;19.30;84.00
40932;DHT22;36257;46.052;12.540;2022-08-21T04:29:59;19.30;84.00
40932;DHT22;36257;46.052;12.540;2022-08-21T04:32:26;19.20;84.20
40932;DHT22;36257;46.052;12.540;2022-08-21T04:35:07;19.30;83.70
40932;DHT22;36257;46.052;12.540;2022-08-21T04:37:33;19.20;84.30
40932;DHT22;36257;46.052;12.540;2022-08-21T04:39:59;19.20;84.90
40932;DHT22;36257;46.052;12.540;2022-08-21T04:42:26;19.20;85.10
40932;DHT22;36257;46.052;12.540;2022-08-21T04:44:53;19.10;85.70
40932;DHT22;36257;46.052;12.540;2022-08-21T04:47:19;19.00;85.80
40932;DHT22;36257;46.052;12.540;2022-08-21T04:49:45;19.00;85.60
40932;DHT22;36257;46.052;12.540;2022-08-21T04:52:12;19.00;84.80
40932;DHT22;36257;46.052;12.540;2022-08-21T04:54:39;19.00;84.70
40932;DHT22;36257;46.052;12.540;2022-08-21T04:57:06;19.10;84.30
40932;DHT22;36257;46.052;12.540;2022-08-21T04:59:43;19.10;84.20
40932;DHT22;36257;46.052;12.540;2022-08-21T05:02:10;19.20;84.50
40932;DHT22;36257;46.052;12.540;2022-08-21T05:04:52;19.20;84.60
40932;DHT22;36257;46.052;12.540;2022-08-21T05:07:23;19.20;84.80
40932;DHT22;36257;46.052;12.540;2022-08-21T05:09:52;19.30;84.90
40932;DHT22;36257;46.052;12.540;2022-08-21T05:12:19;19.30;84.80
40932;DHT22;36257;46.052;12.540;2022-08-21T05:14:44;19.30;84.60
40932;DHT22;36257;46.052;12.540;2022-08-21T05:17:10;19.40;84.60
40932;DHT22;36257;46.052;12.540;2022-08-21T05:19:36;19.50;84.10
40932;DHT22;36257;46.052;12.540;2022-08-21T05:22:02;19.60;84.10
40932;DHT22;36257;46.052;12.540;2022-08-21T05:24:28;19.80;83.90
40932;DHT22;36257;46.052;12.540;2022-08-21T05:26:54;19.90;83.50
40932;DHT22;36257;46.052;12.540;2022-08-21T05:29:20;20.10;82.40
40932;DHT22;36257;46.052;12.540;2022-08-21T05:31:47;20.20;82.40
40932;DHT22;36257;46.052;12.540;2022-08-21T05:34:14;20.30;82.40
40932;DHT22;36257;46.052;12.540;2022-08-21T05:36:40;20.50;82.40
40932;DHT22;36257;46.052;12.540;2022-08-21T05:39:06;20.60;82.10
40932;DHT22;36257;46.052;12.540;2022-08-21T05:41:31;20.80;81.80
40932;DHT22;36257;46.052;12.540;2022-08-21T05:43:57;21.00;81.50
40932;DHT22;36257;46.052;12.540;2022-08-21T05:46:23;21.10;81.80
40932;DHT22;36257;46.052;12.540;2022-08-21T05:48:48;21.30;81.30
40932;DHT22;36257;46.052;12.540;2022-08-21T05:51:15;21.40;80.80
40932;DHT22;36257;46.052;12.540;2022-08-21T05:53:42;21.60;80.30
40932;DHT22;36257;46.052;12.540;2022-08-21T05:56:08;21.80;81.00
40932;DHT22;36257;46.052;12.540;2022-08-21T05:58:34;22.00;80.30
40932;DHT22;36257;46.052;12.540;2022-08-21T06:01:02;22.20;80.20
40932;DHT22;36257;46.052;12.540;2022-08-21T06:03:34;22.40;79.00
40932;DHT22;36257;46.052;12.540;2022-08-21T06:06:00;22.60;78.30
40932;DHT22;36257;46.052;12.540;2022-08-21T06:08:27;22.80;78.20
40932;DHT22;36257;46.052;12.540;2022-08-21T06:10:54;23.00;77.90
40932;DHT22;36257;46.052;12.540;2022-08-21T06:13:21;23.20;78.30
40932;DHT22;36257;46.052;12.540;2022-08-21T06:15:47;23.50;78.50
40932;DHT22;36257;46.052;12.540;2022-08-21T06:18:13;23.70;76.20
40932;DHT22;36257;46.052;12.540;2022-08-21T06:20:40;23.90;77.30
40932;DHT22;36257;46.052;12.540;2022-08-21T06:23:06;24.20;75.70
40932;DHT22;36257;46.052;12.540;2022-08-21T06:25:32;24.40;74.00
40932;DHT22;36257;46.052;12.540;2022-08-21T06:28:05;24.60;73.60
40932;DHT22;36257;46.052;12.540;2022-08-21T06:30:31;24.90;73.00
40932;DHT22;36257;46.052;12.540;2022-08-21T06:32:57;25.10;72.60
40932;DHT22;36257;46.052;12.540;2022-08-21T06:35:23;25.30;72.90
40932;DHT22;36257;46.052;12.540;2022-08-21T06:37:50;25.50;72.80
40932;DHT22;36257;46.052;12.540;2022-08-21T06:40:16;25.70;72.40
40932;DHT22;36257;46.052;12.540;2022-08-21T06:42:41;25.90;71.60
40932;DHT22;36257;46.052;12.540;2022-08-21T06:45:08;26.10;72.20
40932;DHT22;36257;46.052;12.540;2022-08-21T06:47:34;26.30;73.60
40932;DHT22;36257;46.052;12.540;2022-08-21T06:49:59;26.40;72.10
40932;DHT22;36257;46.052;12.540;2022-08-21T06:52:25;26.60;72.20
40932;DHT22;36257;46.052;12.540;2022-08-21T06:54:50;26.60;72.10
40932;DHT22;36257;46.052;12.540;2022-08-21T06:57:17;26.60;72.40
40932;DHT22;36257;46.052;12.540;2022-08-21T06:59:43;26.60;72.80
40932;DHT22;36257;46.052;12.540;2022-08-21T07:02:08;26.70;73.30
40932;DHT22;36257;46.052;12.540;2022-08-21T07:04:34;26.80;73.20
40932;DHT22;36257;46.052;12.540;2022-08-21T07:07:00;27.00;71.00
40932;DHT22;36257;46.052;12.540;2022-08-21T07:09:25;27.10;71.90
40932;DHT22;36257;46.052;12.540;2022-08-21T07:11:53;27.30;73.50
40932;DHT22;36257;46.052;12.540;2022-08-21T07:14:20;27.40;71.20
40932;DHT22;36257;46.052;12.540;2022-08-21T07:16:46;27.70;71.10
40932;DHT22;36257;46.052;12.540;2022-08-21T07:19:12;27.90;72.10
40932;DHT22;36257;46.052;12.540;2022-08-21T07:21:37;27.80;71.80
40932;DHT22;36257;46.052;12.540;2022-08-21T07:24:03;27.70;71.20
40932;DHT22;36257;46.052;12.540;2022-08-21T07:26:29;27.60;73.10
40932;DHT22;36257;46.052;12.540;2022-08-21T07:28:55;27.70;71.70
40932;DHT22;36257;46.052;12.540;2022-08-21T07:31:22;27.90;73.80
40932;DHT22;36257;46.052;12.540;2022-08-21T07:33:48;28.10;73.90
40932;DHT22;36257;46.052;12.540;2022-08-21T07:36:14;28.30;71.40
40932;DHT22;36257;46.052;12.540;2022-08-21T07:38:40;28.50;71.00
40932;DHT22;36257;46.052;12.540;2022-08-21T07:41:15;28.50;72.60
40932;DHT22;36257;46.052;12.540;2022-08-21T07:43:42;28.70;72.80
40932;DHT22;36257;46.052;12.540;2022-08-21T07:46:07;28.90;72.20
40932;DHT22;36257;46.052;12.540;2022-08-21T07:48:33;29.10;71.80
40932;DHT22;36257;46.052;12.540;2022-08-21T07:51:02;29.20;70.40
40932;DHT22;36257;46.052;12.540;2022-08-21T07:53:29;29.20;71.50
40932;DHT22;36257;46.052;12.540;2022-08-21T07:55:57;29.30;71.60
40932;DHT22;36257;46.052;12.540;2022-08-21T07:58:23;29.40;71.30
40932;DHT22;36257;46.052;12.540;2022-08-21T08:00:49;29.60;71.60
40932;DHT22;36257;46.052;12.540;2022-08-21T08:03:14;29.70;70.70
40932;DHT22;36257;46.052;12.540;2022-08-21T08:05:40;29.90;71.40
40932;DHT22;36257;46.052;12.540;2022-08-21T08:08:06;30.10;69.80
40932;DHT22;36257;46.052;12.540;2022-08-21T08:10:32;30.10;68.40
40932;DHT22;36257;46.052;12.540;2022-08-21T08:12:58;30.10;69.10
40932;DHT22;36257;46.052;12.540;2022-08-21T08:15:26;30.00;68.20
40932;DHT22;36257;46.052;12.540;2022-08-21T08:17:53;30.00;68.00
40932;DHT22;36257;46.052;12.540;2022-08-21T08:20:20;29.90;67.90
40932;DHT22;36257;46.052;12.540;2022-08-21T08:22:47;29.80;68.40
40932;DHT22;36257;46.052;12.540;2022-08-21T08:25:14;29.90;68.00
40932;DHT22;36257;46.052;12.540;2022-08-21T08:27:40;30.00;67.90
40932;DHT22;36257;46.052;12.540;2022-08-21T08:30:07;30.20;70.10
40932;DHT22;36257;46.052;12.540;2022-08-21T08:32:33;30.40;68.60
40932;DHT22;36257;46.052;12.540;2022-08-21T08:35:00;30.70;66.10
40932;DHT22;36257;46.052;12.540;2022-08-21T08:37:25;30.50;65.90
40932;DHT22;36257;46.052;12.540;2022-08-21T08:39:51;30.70;66.80
40932;DHT22;36257;46.052;12.540;2022-08-21T08:42:32;30.80;67.10
40932;DHT22;36257;46.052;12.540;2022-08-21T08:45:12;30.90;66.50
40932;DHT22;36257;46.052;12.540;2022-08-21T08:47:42;31.10;66.80
40932;DHT22;36257;46.052;12.540;2022-08-21T08:53:02;31.40;65.10
40932;DHT22;36257;46.052;12.540;2022-08-21T08:55:36;31.60;63.40
40932;DHT22;36257;46.052;12.540;2022-08-21T08:58:03;31.30;62.10
40932;DHT22;36257;46.052;12.540;2022-08-21T09:00:30;31.20;63.50
40932;DHT22;36257;46.052;12.540;2022-08-21T09:02:58;31.20;64.10
40932;DHT22;36257;46.052;12.540;2022-08-21T09:05:28;31.30;63.90
40932;DHT22;36257;46.052;12.540;2022-08-21T09:08:39;31.60;62.90
40932;DHT22;36257;46.052;12.540;2022-08-21T09:19:30;32.50;62.00
40932;DHT22;36257;46.052;12.540;2022-08-21T09:22:09;32.80;58.90
40932;DHT22;36257;46.052;12.540;2022-08-21T09:25:08;32.90;58.10
40932;DHT22;36257;46.052;12.540;2022-08-21T09:27:36;32.90;56.70
40932;DHT22;36257;46.052;12.540;2022-08-21T09:30:05;32.70;57.50
40932;DHT22;36257;46.052;12.540;2022-08-21T09:32:33;32.80;61.20
40932;DHT22;36257;46.052;12.540;2022-08-21T09:35:12;32.90;56.50
40932;DHT22;36257;46.052;12.540;2022-08-21T09:38:02;32.70;58.00
40932;DHT22;36257;46.052;12.540;2022-08-21T09:40:42;32.70;57.70
40932;DHT22;36257;46.052;12.540;2022-08-21T09:45:38;33.30;57.00
40932;DHT22;36257;46.052;12.540;2022-08-21T09:48:19;33.70;55.30
40932;DHT22;36257;46.052;12.540;2022-08-21T09:50:46;33.70;56.80
40932;DHT22;36257;46.052;12.540;2022-08-21T09:53:29;33.70;55.90
40932;DHT22;36257;46.052;12.540;2022-08-21T09:56:04;33.70;56.30
40932;DHT22;36257;46.052;12.540;2022-08-21T09:58:50;33.90;54.30
40932;DHT22;36257;46.052;12.540;2022-08-21T10:01:19;33.90;55.60
40932;DHT22;36257;46.052;12.540;2022-08-21T10:03:46;34.00;53.10
40932;DHT22;36257;46.052;12.540;2022-08-21T10:06:24;34.10;57.40
40932;DHT22;36257;46.052;12.540;2022-08-21T10:08:50;34.20;54.70
40932;DHT22;36257;46.052;12.540;2022-08-21T10:11:17;34.20;55.00
40932;DHT22;36257;46.052;12.540;2022-08-21T10:17:06;34.70;53.80
40932;DHT22;36257;46.052;12.540;2022-08-21T10:20:07;34.80;54.20
40932;DHT22;36257;46.052;12.540;2022-08-21T10:22:49;34.80;52.80
40932;DHT22;36257;46.052;12.540;2022-08-21T10:25:27;34.60;52.30
40932;DHT22;36257;46.052;12.540;2022-08-21T10:36:24;34.70;51.10
40932;DHT22;36257;46.052;12.540;2022-08-21T10:39:25;34.80;53.20
40932;DHT22;36257;46.052;12.540;2022-08-21T10:47:05;35.10;51.40
40932;DHT22;36257;46.052;12.540;2022-08-21T10:49:48;35.10;51.30
40932;DHT22;36257;46.052;12.540;2022-08-21T10:55:07;35.00;54.30
40932;DHT22;36257;46.052;12.540;2022-08-21T10:57:51;35.10;52.90
40932;DHT22;36257;46.052;12.540;2022-08-21T11:00:22;35.20;50.00
40932;DHT22;36257;46.052;12.540;2022-08-21T11:03:04;35.20;51.50
40932;DHT22;36257;46.052;12.540;2022-08-21T11:05:55;35.30;52.00
40932;DHT22;36257;46.052;12.540;2022-08-21T11:08:31;35.10;51.20
40932;DHT22;36257;46.052;12.540;2022-08-21T11:13:41;34.50;52.10
40932;DHT22;36257;46.052;12.540;2022-08-21T11:19:02;35.00;51.00
40932;DHT22;36257;46.052;12.540;2022-08-21T11:21:52;35.10;53.50
40932;DHT22;36257;46.052;12.540;2022-08-21T11:27:05;35.30;53.40
40932;DHT22;36257;46.052;12.540;2022-08-21T11:29:37;35.40;50.20
40932;DHT22;36257;46.052;12.540;2022-08-21T11:45:54;35.20;47.60
40932;DHT22;36257;46.052;12.540;2022-08-21T11:51:05;35.50;47.00
40932;DHT22;36257;46.052;12.540;2022-08-21T11:53:47;35.50;44.90
40932;DHT22;36257;46.052;12.540;2022-08-21T11:56:37;35.70;49.40
40932;DHT22;36257;46.052;12.540;2022-08-21T11:59:19;35.90;51.20
40932;DHT22;36257;46.052;12.540;2022-08-21T12:01:48;36.10;48.10
40932;DHT22;36257;46.052;12.540;2022-08-21T12:04:24;35.60;45.00
40932;DHT22;36257;46.052;12.540;2022-08-21T12:06:51;35.30;50.00
40932;DHT22;36257;46.052;12.540;2022-08-21T12:09:33;35.40;51.80
40932;DHT22;36257;46.052;12.540;2022-08-21T12:12:02;35.60;51.80
40932;DHT22;36257;46.052;12.540;2022-08-21T12:14:49;35.40;49.90
40932;DHT22;36257;46.052;12.540;2022-08-21T12:17:24;35.10;49.30
40932;DHT22;36257;46.052;12.540;2022-08-21T12:20:00;34.80;51.40
40932;DHT22;36257;46.052;12.540;2022-08-21T12:22:39;34.60;51.00
40932;DHT22;36257;46.052;12.540;2022-08-21T12:25:14;34.50;49.90
40932;DHT22;36257;46.052;12.540;2022-08-21T12:27:47;34.40;51.20
40932;DHT22;36257;46.052;12.540;2022-08-21T12:32:57;35.10;48.20
40932;DHT22;36257;46.052;12.540;2022-08-21T12:35:32;35.40;49.20
40932;DHT22;36257;46.052;12.540;2022-08-21T12:38:07;35.30;50.50
40932;DHT22;36257;46.052;12.540;2022-08-21T12:40:42;35.30;47.40
40932;DHT22;36257;46.052;12.540;2022-08-21T12:43:14;35.30;48.90
40932;DHT22;36257;46.052;12.540;2022-08-21T12:45:44;35.40;47.30
40932;DHT22;36257;46.052;12.540;2022-08-21T12:51:12;35.30;47.30
40932;DHT22;36257;46.052;12.540;2022-08-21T12:56:16;35.40;48.00
40932;DHT22;36257;46.052;12.540;2022-08-21T12:58:48;35.60;48.90
40932;DHT22;36257;46.052;12.540;2022-08-21T13:01:22;35.60;47.40
40932;DHT22;36257;46.052;12.540;2022-08-21T13:03:52;35.70;49.20
40932;DHT22;36257;46.052;12.540;2022-08-21T13:06:20;35.20;47.30
40932;DHT22;36257;46.052;12.540;2022-08-21T13:08:51;35.10;49.20
40932;DHT22;36257;46.052;12.540;2022-08-21T13:11:20;35.10;48.60
40932;DHT22;36257;46.052;12.540;2022-08-21T13:13:51;35.00;50.10
40932;DHT22;36257;46.052;12.540;2022-08-21T13:16:24;35.10;49.40
40932;DHT22;36257;46.052;12.540;2022-08-21T13:19:07;35.30;49.90
40932;DHT22;36257;46.052;12.540;2022-08-21T13:21:39;35.50;48.10
40932;DHT22;36257;46.052;12.540;2022-08-21T13:24:26;35.50;46.50
40932;DHT22;36257;46.052;12.540;2022-08-21T13:26:54;35.50;48.00
40932;DHT22;36257;46.052;12.540;2022-08-21T13:29:23;35.20;48.40
40932;DHT22;36257;46.052;12.540;2022-08-21T13:31:55;35.30;47.60
40932;DHT22;36257;46.052;12.540;2022-08-21T13:34:23;35.40;49.10
40932;DHT22;36257;46.052;12.540;2022-08-21T13:36:52;35.60;49.40
40932;DHT22;36257;46.052;12.540;2022-08-21T13:39:20;35.60;51.10
40932;DHT22;36257;46.052;12.540;2022-08-21T13:41:49;35.60;49.70
40932;DHT22;36257;46.052;12.540;2022-08-21T13:44:19;35.70;48.30
40932;DHT22;36257;46.052;12.540;2022-08-21T13:46:46;35.50;48.50
40932;DHT22;36257;46.052;12.540;2022-08-21T13:49:15;35.00;48.70
40932;DHT22;36257;46.052;12.540;2022-08-21T13:51:43;34.50;50.40
40932;DHT22;36257;46.052;12.540;2022-08-21T13:56:47;33.30;51.50
40932;DHT22;36257;46.052;12.540;2022-08-21T13:59:34;33.00;49.90
40932;DHT22;36257;46.052;12.540;2022-08-21T14:02:01;32.80;51.60
40932;DHT22;36257;46.052;12.540;2022-08-21T14:04:39;32.70;51.70
40932;DHT22;36257;46.052;12.540;2022-08-21T14:07:30;32.70;49.70
40932;DHT22;36257;46.052;12.540;2022-08-21T14:10:02;32.50;49.80
40932;DHT22;36257;46.052;12.540;2022-08-21T14:12:35;32.50;50.70
40932;DHT22;36257;46.052;12.540;2022-08-21T14:15:04;32.50;52.80
40932;DHT22;36257;46.052;12.540;2022-08-21T14:17:37;32.60;53.00
40932;DHT22;36257;46.052;12.540;2022-08-21T14:20:08;32.60;53.60
40932;DHT22;36257;46.052;12.540;2022-08-21T14:22:44;32.50;51.40
40932;DHT22;36257;46.052;12.540;2022-08-21T14:25:28;32.30;50.40
40932;DHT22;36257;46.052;12.540;2022-08-21T14:32:53;31.70;51.60
40932;DHT22;36257;46.052;12.540;2022-08-21T14:35:19;31.60;52.30
40932;DHT22;36257;46.052;12.540;2022-08-21T14:37:47;31.50;52.80
40932;DHT22;36257;46.052;12.540;2022-08-21T14:40:16;31.40;52.40
40932;DHT22;36257;46.052;12.540;2022-08-21T14:42:42;31.30;52.80
40932;DHT22;36257;46.052;12.540;2022-08-21T14:45:17;31.20;53.00
40932;DHT22;36257;46.052;12.540;2022-08-21T14:47:42;31.20;54.50
40932;DHT22;36257;46.052;12.540;2022-08-21T14:50:10;31.10;53.50
40932;DHT22;36257;46.052;12.540;2022-08-21T14:52:36;31.10;51.90
40932;DHT22;36257;46.052;12.540;2022-08-21T14:55:03;31.10;51.70
40932;DHT22;36257;46.052;12.540;2022-08-21T14:57:30;31.10;51.40
40932;DHT22;36257;46.052;12.540;2022-08-21T14:59:56;31.10;52.10
40932;DHT22;36257;46.052;12.540;2022-08-21T15:02:22;30.90;53.40
40932;DHT22;36257;46.052;12.540;2022-08-21T15:04:48;30.90;52.50
40932;DHT22;36257;46.052;12.540;2022-08-21T15:07:14;30.90;53.70
40932;DHT22;36257;46.052;12.540;2022-08-21T15:09:39;30.90;55.00
40932;DHT22;36257;46.052;12.540;2022-08-21T15:12:06;30.90;53.70
40932;DHT22;36257;46.052;12.540;2022-08-21T15:14:36;30.90;52.20
40932;DHT22;36257;46.052;12.540;2022-08-21T15:17:04;30.90;53.10
40932;DHT22;36257;46.052;12.540;2022-08-21T15:19:31;30.90;52.60
40932;DHT22;36257;46.052;12.540;2022-08-21T15:21:56;30.90;52.70
40932;DHT22;36257;46.052;12.540;2022-08-21T15:24:22;30.80;53.40
40932;DHT22;36257;46.052;12.540;2022-08-21T15:26:48;30.70;53.60
40932;DHT22;36257;46.052;12.540;2022-08-21T15:29:14;30.60;54.60
40932;DHT22;36257;46.052;12.540;2022-08-21T15:31:57;30.60;54.70
40932;DHT22;36257;46.052;12.540;2022-08-21T15:34:25;30.60;54.90
40932;DHT22;36257;46.052;12.540;2022-08-21T15:36:51;30.50;52.80
40932;DHT22;36257;46.052;12.540;2022-08-21T15:39:16;30.50;53.10
40932;DHT22;36257;46.052;12.540;2022-08-21T15:41:43;30.50;56.10
40932;DHT22;36257;46.052;12.540;2022-08-21T15:44:10;30.60;55.70
40932;DHT22;36257;46.052;12.540;2022-08-21T15:46:39;30.70;55.50
40932;DHT22;36257;46.052;12.540;2022-08-21T15:49:05;30.70;53.90
40932;DHT22;36257;46.052;12.540;2022-08-21T15:51:31;30.80;54.00
40932;DHT22;36257;46.052;12.540;2022-08-21T15:53:57;30.80;54.50
40932;DHT22;36257;46.052;12.540;2022-08-21T15:56:25;30.80;55.40
40932;DHT22;36257;46.052;12.540;2022-08-21T15:58:54;30.80;54.90
40932;DHT22;36257;46.052;12.540;2022-08-21T16:01:23;30.80;55.00
40932;DHT22;36257;46.052;12.540;2022-08-21T16:03:50;30.70;54.10
40932;DHT22;36257;46.052;12.540;2022-08-21T16:06:18;30.60;55.70
40932;DHT22;36257;46.052;12.540;2022-08-21T16:08:43;30.60;53.90
40932;DHT22;36257;46.052;12.540;2022-08-21T16:11:11;30.60;53.80
40932;DHT22;36257;46.052;12.540;2022-08-21T16:13:40;30.40;55.50
40932;DHT22;36257;46.052;12.540;2022-08-21T16:16:11;30.30;55.00
40932;DHT22;36257;46.052;12.540;2022-08-21T16:18:38;30.30;56.30
40932;DHT22;36257;46.052;12.540;2022-08-21T16:21:04;30.20;60.30
40932;DHT22;36257;46.052;12.540;2022-08-21T16:23:30;30.10;61.90
40932;DHT22;36257;46.052;12.540;2022-08-21T16:25:58;30.00;62.70
40932;DHT22;36257;46.052;12.540;2022-08-21T16:28:25;29.90;63.30
40932;DHT22;36257;46.052;12.540;2022-08-21T16:30:51;29.90;59.00
40932;DHT22;36257;46.052;12.540;2022-08-21T16:33:40;29.80;60.80
40932;DHT22;36257;46.052;12.540;2022-08-21T16:36:07;29.80;62.70
40932;DHT22;36257;46.052;12.540;2022-08-21T16:38:34;29.80;63.90
40932;DHT22;36257;46.052;12.540;2022-08-21T16:41:06;29.70;66.60
40932;DHT22;36257;46.052;12.540;2022-08-21T16:43:33;29.70;67.80
40932;DHT22;36257;46.052;12.540;2022-08-21T16:46:00;29.60;71.60